Time;durP1;ratioP1;P1;durP2;ratioP2;P2;SDS_P1;SDS_P2;PMS_P1;PMS_P2;Temp;Humidity;BMP_temperature;BMP_pressure;BME280_temperature;BME280_humidity;BME280_pressure;Samples;Min_cycle;Max_cycle;Signal;HPM_P1;HPM_P2
2021/12/25 00:00:36;;;;;;;78.65;29.83;;;;;;;;;;4782143;29;20075;-75
2021/12/25 00:03:04;;;;;;;44.10;25.33;;;;;;;;;;4781919;29;20070;-75
2021/12/25 00:05:32;;;;;;;48.85;27.40;;;;;;;;;;4767474;30;20669;-75
2021/12/25 00:07:59;;;;;;;72.32;28.92;;;;;;;;;;4784011;30;20059;-76
2021/12/25 00:10:30;;;;;;;45.17;25.92;;;;;;;;;;4782108;29;20059;-75
2021/12/25 00:12:58;;;;;;;45.28;26.35;;;;;;;;;;4783985;30;20065;-75
2021/12/25 00:15:26;;;;;;;39.40;22.25;;;;;;;;;;4782392;30;20517;-75
2021/12/25 00:17:53;;;;;;;39.42;22.65;;;;;;;;;;4832957;24;20119;-83
2021/12/25 00:20:21;;;;;;;46.45;24.20;;;;;;;;;;4821712;29;20050;-83
2021/12/25 00:22:48;;;;;;;55.65;25.95;;;;;;;;;;4817323;29;20050;-83
2021/12/25 00:25:15;;;;;;;63.25;28.15;;;;;;;;;;4823058;29;20050;-83
2021/12/25 00:28:18;;;;;;;39.17;23.42;;;;;;;;;;4821214;29;20315;-83
2021/12/25 00:33:49;;;;;;;61.03;26.40;;;;;;;;;;4823180;29;20039;-83
2021/12/25 00:36:19;;;;;;;56.80;26.13;;;;;;;;;;4806274;29;20034;-83
2021/12/25 00:38:46;;;;;;;35.08;23.27;;;;;;;;;;4805142;29;20427;-83
2021/12/25 00:41:20;;;;;;;34.00;22.63;;;;;;;;;;4818513;29;20050;-83
2021/12/25 00:43:48;;;;;;;57.35;25.73;;;;;;;;;;4820127;29;20074;-83
2021/12/25 00:46:16;;;;;;;53.90;26.52;;;;;;;;;;4795524;29;20084;-83
2021/12/25 00:48:43;;;;;;;50.83;26.70;;;;;;;;;;4807032;29;20392;-83
2021/12/25 00:51:11;;;;;;;36.95;22.27;;;;;;;;;;4821523;29;20106;-83
2021/12/25 00:53:40;;;;;;;33.17;21.38;;;;;;;;;;4820864;29;20054;-83
2021/12/25 00:56:10;;;;;;;33.95;20.42;;;;;;;;;;4824303;29;20065;-83
2021/12/25 00:58:43;;;;;;;22.83;16.17;;;;;;;;;;4818213;29;20039;-83
2021/12/25 01:01:12;;;;;;;23.73;15.55;;;;;;;;;;4822663;29;20051;-83
2021/12/25 01:03:40;;;;;;;47.10;23.38;;;;;;;;;;4790190;29;20431;-83
2021/12/25 01:06:10;;;;;;;27.35;17.83;;;;;;;;;;4816533;29;20051;-83
2021/12/25 01:08:37;;;;;;;37.35;22.35;;;;;;;;;;4824558;29;20122;-83
2021/12/25 01:11:05;;;;;;;26.13;17.90;;;;;;;;;;4817845;29;20046;-83
2021/12/25 01:13:38;;;;;;;36.28;20.15;;;;;;;;;;4805539;29;20050;-82
2021/12/25 01:30:20;;;;;;;38.28;21.40;;;;;;;;;;4764489;29;20424;-83
2021/12/25 01:33:26;;;;;;;40.38;22.60;;;;;;;;;;4764288;30;20051;-83
2021/12/25 01:36:41;;;;;;;37.70;22.00;;;;;;;;;;4763265;30;20062;-83
2021/12/25 01:39:43;;;;;;;40.58;23.88;;;;;;;;;;4764386;30;20179;-83
2021/12/25 01:48:41;;;;;;;42.53;20.02;;;;;;;;;;4768191;30;20152;-83
2021/12/25 01:51:08;;;;;;;29.83;18.65;;;;;;;;;;4764702;30;20047;-82
2021/12/25 01:53:36;;;;;;;40.08;20.55;;;;;;;;;;4764240;30;20527;-83
2021/12/25 01:56:04;;;;;;;41.65;21.00;;;;;;;;;;4763545;30;20818;-83
2021/12/25 01:58:33;;;;;;;35.28;19.90;;;;;;;;;;4779531;29;20551;-83
2021/12/25 02:01:01;;;;;;;37.42;20.95;;;;;;;;;;4788179;29;20050;-83
2021/12/25 02:03:30;;;;;;;40.38;21.15;;;;;;;;;;4805176;29;20113;-83
2021/12/25 02:05:58;;;;;;;31.98;19.63;;;;;;;;;;4820833;29;20050;-82
2021/12/25 02:08:32;;;;;;;37.42;21.05;;;;;;;;;;4834152;29;20110;-83
2021/12/25 02:10:59;;;;;;;32.03;21.25;;;;;;;;;;4826758;29;20042;-83
2021/12/25 02:13:27;;;;;;;24.70;17.10;;;;;;;;;;4825131;29;20543;-83
2021/12/25 02:15:56;;;;;;;24.35;16.05;;;;;;;;;;4823374;29;20091;-83
2021/12/25 02:18:31;;;;;;;25.92;18.20;;;;;;;;;;4805349;29;20055;-84
2021/12/25 02:21:21;;;;;;;28.30;17.88;;;;;;;;;;4820765;29;20091;-82
2021/12/25 02:23:49;;;;;;;28.50;19.80;;;;;;;;;;4823968;29;20070;-83
2021/12/25 02:26:18;;;;;;;31.38;19.63;;;;;;;;;;4814000;29;20051;-83
2021/12/25 02:28:45;;;;;;;37.25;21.88;;;;;;;;;;4809478;29;20464;-83
2021/12/25 02:31:14;;;;;;;25.23;16.20;;;;;;;;;;4824826;29;20054;-83
2021/12/25 02:33:42;;;;;;;27.27;17.08;;;;;;;;;;4809474;29;20060;-82
2021/12/25 02:36:10;;;;;;;20.45;15.73;;;;;;;;;;4821306;29;20034;-83
2021/12/25 02:38:39;;;;;;;28.52;17.33;;;;;;;;;;4799615;29;20062;-83
2021/12/25 02:41:08;;;;;;;19.02;13.73;;;;;;;;;;4819829;29;20103;-83
2021/12/25 02:43:36;;;;;;;28.88;17.98;;;;;;;;;;4824049;29;20050;-83
2021/12/25 02:46:04;;;;;;;23.35;15.52;;;;;;;;;;4823044;29;20098;-83
2021/12/25 02:48:33;;;;;;;21.58;15.70;;;;;;;;;;4821318;29;20045;-83
2021/12/25 02:51:03;;;;;;;26.17;17.20;;;;;;;;;;4804288;29;20419;-83
2021/12/25 02:53:31;;;;;;;24.02;16.27;;;;;;;;;;4823214;29;20058;-83
2021/12/25 02:55:59;;;;;;;28.05;18.15;;;;;;;;;;4822747;29;20125;-83
2021/12/25 02:58:29;;;;;;;24.38;16.08;;;;;;;;;;4825753;29;20031;-83
2021/12/25 03:00:58;;;;;;;29.80;18.00;;;;;;;;;;4805817;29;20047;-84
2021/12/25 03:03:26;;;;;;;42.15;19.83;;;;;;;;;;4830078;29;20069;-84
2021/12/25 03:05:54;;;;;;;22.58;15.43;;;;;;;;;;4822571;29;20087;-83
2021/12/25 03:08:21;;;;;;;39.00;19.70;;;;;;;;;;4823236;29;20060;-83
2021/12/25 03:10:58;;;;;;;20.08;14.65;;;;;;;;;;4820708;29;20100;-84
2021/12/25 03:14:13;;;;;;;34.53;19.35;;;;;;;;;;4825431;29;20059;-83
2021/12/25 03:16:19;;;;;;;28.17;17.88;;;;;;;;;;4797115;29;20129;-83
2021/12/25 03:18:50;;;;;;;24.15;15.93;;;;;;;;;;4823254;29;20055;-84
2021/12/25 03:21:18;;;;;;;34.60;18.50;;;;;;;;;;4822473;29;20057;-84
2021/12/25 03:23:46;;;;;;;28.63;18.05;;;;;;;;;;4806332;29;20051;-84
2021/12/25 03:26:14;;;;;;;28.60;17.63;;;;;;;;;;4822034;29;20042;-84
2021/12/25 03:28:44;;;;;;;26.88;17.85;;;;;;;;;;4807515;29;20058;-83
2021/12/25 03:31:20;;;;;;;38.13;18.30;;;;;;;;;;4813571;29;20035;-84
2021/12/25 03:33:50;;;;;;;25.55;15.93;;;;;;;;;;4823195;29;20095;-84
2021/12/25 03:36:18;;;;;;;32.33;18.80;;;;;;;;;;4822825;29;20516;-83
2021/12/25 03:38:47;;;;;;;37.22;18.35;;;;;;;;;;4822981;29;20048;-83
2021/12/25 03:41:18;;;;;;;20.83;14.80;;;;;;;;;;4809668;29;20050;-83
2021/12/25 03:43:46;;;;;;;26.35;15.60;;;;;;;;;;4820698;29;20047;-84
2021/12/25 03:46:13;;;;;;;32.28;17.35;;;;;;;;;;4824330;29;20480;-84
2021/12/25 03:59:37;;;;;;;12.88;10.45;;;;;;;;;;4825428;29;20034;-83
2021/12/25 04:02:13;;;;;;;19.70;13.27;;;;;;;;;;4824651;29;20035;-84
2021/12/25 04:04:45;;;;;;;34.53;17.08;;;;;;;;;;4822969;29;20053;-84
2021/12/25 04:10:00;;;;;;;23.67;14.63;;;;;;;;;;4822231;29;20061;-84
2021/12/25 04:12:27;;;;;;;12.23;10.18;;;;;;;;;;4822406;29;20050;-84
2021/12/25 04:14:55;;;;;;;18.00;11.80;;;;;;;;;;4823016;29;20058;-84
2021/12/25 04:17:22;;;;;;;21.50;12.98;;;;;;;;;;4805997;29;20077;-83
2021/12/25 04:19:50;;;;;;;34.25;16.02;;;;;;;;;;4802247;29;20070;-84
2021/12/25 04:22:27;;;;;;;18.73;11.88;;;;;;;;;;4823291;29;20042;-83
2021/12/25 04:24:54;;;;;;;24.20;13.15;;;;;;;;;;4810824;29;20065;-84
2021/12/25 04:27:22;;;;;;;30.88;15.23;;;;;;;;;;4825471;29;20171;-84
2021/12/25 04:30:05;;;;;;;31.85;15.68;;;;;;;;;;4804489;29;20050;-84
2021/12/25 04:33:10;;;;;;;18.30;11.23;;;;;;;;;;4822982;29;20059;-84
2021/12/25 04:49:47;;;;;;;28.10;13.07;;;;;;;;;;4827680;29;20133;-83
2021/12/25 05:04:00;;;;;;;22.95;12.38;;;;;;;;;;4731725;30;20048;-84
2021/12/25 05:06:33;;;;;;;26.27;12.43;;;;;;;;;;4723881;30;20056;-84
2021/12/25 05:09:00;;;;;;;40.97;12.68;;;;;;;;;;4729951;30;20068;-84
2021/12/25 05:11:27;;;;;;;37.53;12.73;;;;;;;;;;4738399;30;20089;-83
2021/12/25 05:13:54;;;;;;;18.70;11.00;;;;;;;;;;4715458;30;20497;-84
2021/12/25 05:16:31;;;;;;;22.00;11.30;;;;;;;;;;4740949;30;20090;-83
2021/12/25 05:18:59;;;;;;;26.88;10.70;;;;;;;;;;4729910;30;20057;-83
2021/12/25 05:21:27;;;;;;;21.50;10.70;;;;;;;;;;4724691;30;20056;-83
2021/12/25 05:23:55;;;;;;;25.80;11.07;;;;;;;;;;4721024;30;20127;-84
2021/12/25 05:26:23;;;;;;;32.63;12.50;;;;;;;;;;4725565;30;20129;-84
2021/12/25 05:28:58;;;;;;;19.88;11.10;;;;;;;;;;4719043;30;20052;-84
2021/12/25 05:31:30;;;;;;;18.33;10.90;;;;;;;;;;4747636;30;20532;-83
2021/12/25 05:34:33;;;;;;;24.75;11.70;;;;;;;;;;4809696;29;20059;-83
2021/12/25 05:37:31;;;;;;;32.53;14.05;;;;;;;;;;4797369;29;20038;-83
2021/12/25 05:40:16;;;;;;;17.77;10.23;;;;;;;;;;4814213;29;20600;-83
2021/12/25 05:42:49;;;;;;;15.20;9.90;;;;;;;;;;4773674;29;20069;-83
2021/12/25 05:45:16;;;;;;;15.32;9.95;;;;;;;;;;4786642;29;20055;-83
2021/12/25 05:48:06;;;;;;;22.60;11.57;;;;;;;;;;4798484;29;20054;-83
2021/12/25 05:50:43;;;;;;;16.05;10.82;;;;;;;;;;4785911;29;20134;-84
2021/12/25 05:53:46;;;;;;;15.02;8.95;;;;;;;;;;4786679;29;20500;-83
2021/12/25 05:56:28;;;;;;;23.58;12.15;;;;;;;;;;4774061;29;20051;-83
2021/12/25 05:59:08;;;;;;;19.23;11.73;;;;;;;;;;4753788;30;20055;-84
2021/12/25 06:01:53;;;;;;;24.77;13.02;;;;;;;;;;4768322;30;20086;-84
2021/12/25 06:04:24;;;;;;;21.45;11.95;;;;;;;;;;4735969;30;20085;-84
2021/12/25 06:06:52;;;;;;;20.17;11.90;;;;;;;;;;4752672;30;20134;-84
2021/12/25 06:09:19;;;;;;;26.92;13.73;;;;;;;;;;4768860;30;20104;-83
2021/12/25 06:11:48;;;;;;;22.50;12.60;;;;;;;;;;4759233;29;20074;-83
2021/12/25 06:14:20;;;;;;;30.50;14.10;;;;;;;;;;4771387;29;20059;-84
2021/12/25 06:17:06;;;;;;;16.73;11.23;;;;;;;;;;4772969;29;20119;-83
2021/12/25 06:19:49;;;;;;;39.45;15.85;;;;;;;;;;4765392;30;20055;-83
2021/12/25 06:22:35;;;;;;;31.80;14.60;;;;;;;;;;4770332;29;20504;-84
2021/12/25 06:25:10;;;;;;;19.15;11.65;;;;;;;;;;4772803;29;20059;-83
2021/12/25 06:28:07;;;;;;;18.05;10.43;;;;;;;;;;4801518;29;20061;-83
2021/12/25 06:30:49;;;;;;;16.40;10.77;;;;;;;;;;4826647;29;20567;-83
2021/12/25 06:33:32;;;;;;;16.23;10.27;;;;;;;;;;4809412;24;20134;-75
2021/12/25 06:36:11;;;;;;;39.30;13.55;;;;;;;;;;4799546;29;20046;-75
2021/12/25 06:38:57;;;;;;;20.08;10.38;;;;;;;;;;4798563;29;20503;-75
2021/12/25 06:41:32;;;;;;;16.38;10.02;;;;;;;;;;4808067;29;20056;-75
2021/12/25 06:44:00;;;;;;;18.42;11.13;;;;;;;;;;4815529;29;20076;-75
2021/12/25 06:46:38;;;;;;;21.65;11.18;;;;;;;;;;4799798;29;20070;-75
2021/12/25 06:49:05;;;;;;;22.35;11.50;;;;;;;;;;4800375;29;20043;-75
2021/12/25 06:51:56;;;;;;;24.73;12.93;;;;;;;;;;4808428;29;20047;-75
2021/12/25 06:54:46;;;;;;;17.25;10.50;;;;;;;;;;4799464;29;20051;-75
2021/12/25 06:57:31;;;;;;;22.00;11.23;;;;;;;;;;4800337;29;20503;-75
2021/12/25 07:00:01;;;;;;;32.00;13.63;;;;;;;;;;4803832;29;20057;-75
2021/12/25 07:02:28;;;;;;;32.58;13.23;;;;;;;;;;4798881;29;20054;-75
2021/12/25 07:05:14;;;;;;;21.95;12.13;;;;;;;;;;4800519;29;20219;-75
2021/12/25 07:07:51;;;;;;;24.98;13.32;;;;;;;;;;4801092;29;20130;-75
2021/12/25 07:10:28;;;;;;;25.85;12.13;;;;;;;;;;4789903;29;20115;-76
2021/12/25 07:13:07;;;;;;;30.67;13.40;;;;;;;;;;4807481;29;20209;-75
2021/12/25 07:15:38;;;;;;;26.27;12.85;;;;;;;;;;4804830;29;20488;-75
2021/12/25 07:18:24;;;;;;;27.70;13.43;;;;;;;;;;4809522;29;20121;-75
2021/12/25 07:21:11;;;;;;;25.38;12.88;;;;;;;;;;4805593;29;20058;-75
2021/12/25 07:23:51;;;;;;;50.90;15.70;;;;;;;;;;4786725;29;20082;-75
2021/12/25 07:26:46;;;;;;;23.25;12.75;;;;;;;;;;4790292;29;20527;-75
2021/12/25 07:29:32;;;;;;;23.75;13.40;;;;;;;;;;4795424;29;20197;-75
2021/12/25 07:32:00;;;;;;;20.40;10.95;;;;;;;;;;4804823;29;20062;-75
2021/12/25 07:34:27;;;;;;;15.95;10.35;;;;;;;;;;4802566;29;20072;-75
2021/12/25 07:36:55;;;;;;;30.83;14.77;;;;;;;;;;4810539;29;20070;-75
2021/12/25 07:39:22;;;;;;;16.30;10.27;;;;;;;;;;4798234;29;20082;-75
2021/12/25 07:41:49;;;;;;;24.33;13.80;;;;;;;;;;4803492;29;20166;-75
2021/12/25 07:44:26;;;;;;;37.08;16.60;;;;;;;;;;4800786;29;20472;-75
2021/12/25 07:46:56;;;;;;;31.23;15.10;;;;;;;;;;4800405;29;20099;-75
2021/12/25 07:49:24;;;;;;;12.35;9.65;;;;;;;;;;4799240;29;20490;-75
2021/12/25 07:51:51;;;;;;;23.23;12.85;;;;;;;;;;4799552;29;20051;-75
2021/12/25 07:54:18;;;;;;;23.13;12.70;;;;;;;;;;4800948;29;20043;-75
2021/12/25 07:56:47;;;;;;;23.02;13.30;;;;;;;;;;4805635;29;20471;-75
2021/12/25 07:59:16;;;;;;;26.40;13.77;;;;;;;;;;4802158;29;20047;-75
2021/12/25 08:01:44;;;;;;;28.83;13.02;;;;;;;;;;4801409;29;20050;-75
2021/12/25 08:04:11;;;;;;;21.70;11.52;;;;;;;;;;4801276;29;20089;-75
2021/12/25 08:06:40;;;;;;;21.27;10.38;;;;;;;;;;4799252;29;20059;-75
2021/12/25 08:09:07;;;;;;;23.80;10.70;;;;;;;;;;4799427;29;20419;-75
2021/12/25 08:11:34;;;;;;;15.52;9.57;;;;;;;;;;4804037;29;20073;-76
2021/12/25 08:14:02;;;;;;;17.10;9.40;;;;;;;;;;4802439;29;20456;-75
2021/12/25 08:16:29;;;;;;;13.27;10.25;;;;;;;;;;4802353;29;20043;-76
2021/12/25 08:18:57;;;;;;;23.48;13.85;;;;;;;;;;4801079;29;20051;-76
2021/12/25 08:22:03;;;;;;;17.17;10.23;;;;;;;;;;4759680;30;20078;-75
2021/12/25 08:24:51;;;;;;;13.38;9.60;;;;;;;;;;4768666;30;20188;-75
2021/12/25 08:27:37;;;;;;;14.23;9.40;;;;;;;;;;4764981;30;20075;-75
2021/12/25 08:30:26;;;;;;;10.70;7.63;;;;;;;;;;4761423;30;20039;-75
2021/12/25 08:33:12;;;;;;;10.43;8.32;;;;;;;;;;4770302;30;20514;-76
2021/12/25 08:35:58;;;;;;;9.68;8.38;;;;;;;;;;4751169;30;20048;-75
2021/12/25 08:38:25;;;;;;;12.32;9.15;;;;;;;;;;4769738;30;20556;-75
2021/12/25 08:40:55;;;;;;;13.82;11.55;;;;;;;;;;4761241;30;20657;-75
2021/12/25 08:43:25;;;;;;;21.13;12.05;;;;;;;;;;4755818;30;20048;-75
2021/12/25 08:46:03;;;;;;;24.75;12.63;;;;;;;;;;4752350;29;20524;-75
2021/12/25 08:48:31;;;;;;;21.00;12.35;;;;;;;;;;4769601;30;20059;-75
2021/12/25 08:50:59;;;;;;;27.50;12.77;;;;;;;;;;4760206;29;20514;-75
2021/12/25 08:53:28;;;;;;;18.23;10.63;;;;;;;;;;4811195;29;20050;-75
2021/12/25 08:55:57;;;;;;;16.85;11.35;;;;;;;;;;4799789;29;20186;-75
2021/12/25 08:58:31;;;;;;;14.43;8.73;;;;;;;;;;4810273;29;20403;-75
2021/12/25 09:01:01;;;;;;;19.67;10.25;;;;;;;;;;4793890;29;20572;-75
2021/12/25 09:03:30;;;;;;;7.53;6.72;;;;;;;;;;4807796;29;20424;-75
2021/12/25 09:05:59;;;;;;;23.42;11.82;;;;;;;;;;4800676;29;20541;-75
2021/12/25 09:08:27;;;;;;;17.15;10.10;;;;;;;;;;4799010;29;20122;-75
2021/12/25 09:10:54;;;;;;;29.15;11.70;;;;;;;;;;4798642;29;20038;-75
2021/12/25 09:13:22;;;;;;;10.02;7.70;;;;;;;;;;4798184;29;20515;-75
2021/12/25 09:15:50;;;;;;;21.38;10.50;;;;;;;;;;4800084;29;20074;-75
2021/12/25 09:18:18;;;;;;;22.52;11.35;;;;;;;;;;4800636;29;20043;-75
2021/12/25 09:20:45;;;;;;;14.27;8.45;;;;;;;;;;4798541;29;20135;-75
2021/12/25 09:23:13;;;;;;;16.48;9.07;;;;;;;;;;4800836;29;20034;-75
2021/12/25 09:25:40;;;;;;;13.20;7.82;;;;;;;;;;4797072;29;20281;-75
2021/12/25 09:28:10;;;;;;;21.50;11.38;;;;;;;;;;4799786;29;20043;-75
2021/12/25 09:30:38;;;;;;;16.70;8.93;;;;;;;;;;4797764;29;20078;-75
2021/12/25 09:33:05;;;;;;;22.95;12.50;;;;;;;;;;4797148;29;20050;-75
2021/12/25 09:35:32;;;;;;;30.27;13.85;;;;;;;;;;4802357;29;20134;-75
2021/12/25 09:38:00;;;;;;;30.05;13.48;;;;;;;;;;4801676;29;20117;-75
2021/12/25 09:40:27;;;;;;;19.55;11.35;;;;;;;;;;4800539;29;20046;-75
2021/12/25 09:42:55;;;;;;;20.75;10.43;;;;;;;;;;4797682;29;20042;-75
2021/12/25 09:45:23;;;;;;;16.00;9.23;;;;;;;;;;4813943;29;20546;-75
2021/12/25 09:47:51;;;;;;;12.68;7.72;;;;;;;;;;4796490;29;20045;-73
2021/12/25 09:50:19;;;;;;;17.98;9.40;;;;;;;;;;4803557;29;20103;-74
2021/12/25 09:52:46;;;;;;;15.38;8.65;;;;;;;;;;4800532;29;20559;-74
2021/12/25 09:55:15;;;;;;;17.52;8.13;;;;;;;;;;4799995;29;20043;-76
2021/12/25 09:57:42;;;;;;;15.50;8.25;;;;;;;;;;4801382;29;20046;-74
2021/12/25 10:00:11;;;;;;;15.32;7.88;;;;;;;;;;4807352;29;20047;-73
2021/12/25 10:02:46;;;;;;;10.38;8.13;;;;;;;;;;4805690;29;20423;-73
2021/12/25 10:05:23;;;;;;;12.63;7.57;;;;;;;;;;4801184;29;20079;-73
2021/12/25 10:08:11;;;;;;;14.82;9.43;;;;;;;;;;4804880;29;20454;-73
2021/12/25 10:10:41;;;;;;;10.95;7.50;;;;;;;;;;4805159;29;20089;-75
2021/12/25 10:13:23;;;;;;;10.73;8.18;;;;;;;;;;4804339;29;20043;-74
2021/12/25 10:15:51;;;;;;;9.95;8.05;;;;;;;;;;4798523;29;20096;-74
2021/12/25 10:18:27;;;;;;;15.10;8.43;;;;;;;;;;4802953;29;20103;-74
2021/12/25 10:20:54;;;;;;;10.93;6.97;;;;;;;;;;4802462;29;20058;-74
2021/12/25 10:23:29;;;;;;;13.95;9.73;;;;;;;;;;4800749;29;20078;-74
2021/12/25 10:25:58;;;;;;;14.02;9.02;;;;;;;;;;4803064;29;20129;-75
2021/12/25 10:28:25;;;;;;;14.80;9.13;;;;;;;;;;4803193;29;20583;-75
2021/12/25 10:30:55;;;;;;;13.95;8.90;;;;;;;;;;4803549;29;20047;-75
2021/12/25 10:33:25;;;;;;;16.13;9.55;;;;;;;;;;4803689;29;20557;-75
2021/12/25 10:35:54;;;;;;;24.38;11.27;;;;;;;;;;4804379;29;20545;-75
2021/12/25 10:38:24;;;;;;;14.25;9.43;;;;;;;;;;4810264;29;20512;-76
2021/12/25 10:41:08;;;;;;;19.98;11.00;;;;;;;;;;4810168;29;20035;-75
2021/12/25 10:43:41;;;;;;;23.08;13.52;;;;;;;;;;4812571;29;20047;-75
2021/12/25 10:46:08;;;;;;;17.55;12.00;;;;;;;;;;4816119;29;20622;-75
2021/12/25 10:48:36;;;;;;;19.35;11.70;;;;;;;;;;4823065;29;20137;-75
2021/12/25 10:51:03;;;;;;;20.98;11.30;;;;;;;;;;4799955;29;20047;-74
2021/12/25 10:53:41;;;;;;;14.77;10.40;;;;;;;;;;4804309;29;20291;-75
2021/12/25 10:56:12;;;;;;;16.00;10.55;;;;;;;;;;4805237;29;20162;-75
2021/12/25 10:58:41;;;;;;;14.95;9.77;;;;;;;;;;4809382;29;20587;-75
2021/12/25 11:01:09;;;;;;;16.20;9.75;;;;;;;;;;4821179;29;20491;-75
2021/12/25 11:03:39;;;;;;;7.53;6.68;;;;;;;;;;4823526;29;20047;-75
2021/12/25 11:06:08;;;;;;;16.23;10.52;;;;;;;;;;4815357;29;20137;-75
2021/12/25 11:08:36;;;;;;;19.48;11.00;;;;;;;;;;4808972;29;20508;-75
2021/12/25 11:11:20;;;;;;;13.93;10.43;;;;;;;;;;4800622;29;20115;-77
2021/12/25 11:13:49;;;;;;;14.27;9.02;;;;;;;;;;4809980;29;20134;-75
2021/12/25 11:16:27;;;;;;;14.07;11.02;;;;;;;;;;4803920;29;20066;-74
2021/12/25 11:19:27;;;;;;;14.32;8.93;;;;;;;;;;4814829;29;20050;-75
2021/12/25 11:21:49;;;;;;;14.27;8.10;;;;;;;;;;4808547;29;20069;-75
2021/12/25 11:24:20;;;;;;;17.25;9.40;;;;;;;;;;4819085;29;20739;-75
2021/12/25 11:26:49;;;;;;;15.10;10.27;;;;;;;;;;4804890;29;20670;-75
2021/12/25 11:29:17;;;;;;;15.25;10.02;;;;;;;;;;4801887;29;20524;-75
2021/12/25 11:31:45;;;;;;;17.83;10.57;;;;;;;;;;4810583;29;20534;-76
2021/12/25 11:34:13;;;;;;;17.02;9.93;;;;;;;;;;4808877;29;20141;-75
2021/12/25 11:36:42;;;;;;;12.15;8.25;;;;;;;;;;4809189;29;20180;-75
2021/12/25 11:39:10;;;;;;;15.55;9.90;;;;;;;;;;4800945;29;20164;-75
2021/12/25 11:41:39;;;;;;;18.70;12.65;;;;;;;;;;4811156;29;20129;-75
2021/12/25 11:44:48;;;;;;;16.20;9.50;;;;;;;;;;4798929;29;20424;-75
2021/12/25 11:47:39;;;;;;;14.95;9.70;;;;;;;;;;4776969;29;20061;-76
2021/12/25 11:50:08;;;;;;;15.23;9.77;;;;;;;;;;4785978;29;20870;-75
2021/12/25 11:52:53;;;;;;;15.02;9.82;;;;;;;;;;4791418;29;20079;-76
2021/12/25 12:00:40;;;;;;;15.85;9.77;;;;;;;;;;4786857;29;20141;-76
2021/12/25 12:03:32;;;;;;;15.15;8.77;;;;;;;;;;4783229;29;20496;-76
2021/12/25 12:05:59;;;;;;;14.35;9.23;;;;;;;;;;4779463;29;20450;-75
2021/12/25 12:08:27;;;;;;;16.27;10.50;;;;;;;;;;4796203;29;20385;-75
2021/12/25 12:11:25;;;;;;;17.00;9.18;;;;;;;;;;4770532;29;20054;-76
2021/12/25 12:14:25;;;;;;;15.80;10.65;;;;;;;;;;4785276;29;20088;-76
2021/12/25 12:17:17;;;;;;;18.50;11.63;;;;;;;;;;4784350;24;20133;-73
2021/12/25 12:19:51;;;;;;;15.45;10.55;;;;;;;;;;4796563;29;20051;-73
2021/12/25 12:22:36;;;;;;;21.25;11.40;;;;;;;;;;4787495;29;20523;-73
2021/12/25 12:27:31;;;;;;;20.88;11.70;;;;;;;;;;4799678;29;20074;-73
2021/12/25 12:29:59;;;;;;;14.70;10.10;;;;;;;;;;4798942;29;20120;-73
2021/12/25 12:32:46;;;;;;;17.15;10.38;;;;;;;;;;4799058;29;20051;-73
2021/12/25 12:35:32;;;;;;;16.25;10.95;;;;;;;;;;4802934;29;20123;-73
2021/12/25 12:38:18;;;;;;;20.80;12.45;;;;;;;;;;4798576;29;20061;-73
2021/12/25 12:40:45;;;;;;;16.48;10.65;;;;;;;;;;4798962;29;20038;-73
2021/12/25 12:43:14;;;;;;;14.63;9.63;;;;;;;;;;4801488;29;20060;-73
2021/12/25 12:45:52;;;;;;;18.83;12.57;;;;;;;;;;4799507;29;20086;-73
2021/12/25 12:48:20;;;;;;;17.67;11.65;;;;;;;;;;4801250;29;20050;-73
2021/12/25 12:50:58;;;;;;;22.70;13.38;;;;;;;;;;4798191;29;20141;-73
2021/12/25 12:53:26;;;;;;;25.25;13.05;;;;;;;;;;4810321;29;20049;-73
2021/12/25 12:56:03;;;;;;;23.25;14.98;;;;;;;;;;4800392;29;20074;-72
2021/12/25 12:58:30;;;;;;;20.52;12.77;;;;;;;;;;4803301;29;20051;-72
2021/12/25 13:00:59;;;;;;;19.98;12.60;;;;;;;;;;4795841;29;20433;-73
2021/12/25 13:03:28;;;;;;;21.08;13.05;;;;;;;;;;4795393;29;20047;-73
2021/12/25 13:05:58;;;;;;;19.75;12.60;;;;;;;;;;4803375;29;20126;-73
2021/12/25 13:08:30;;;;;;;16.90;12.80;;;;;;;;;;4802462;29;20071;-72
2021/12/25 13:11:09;;;;;;;21.25;12.13;;;;;;;;;;4800336;29;20054;-73
2021/12/25 13:13:40;;;;;;;22.83;13.43;;;;;;;;;;4795751;29;20066;-72
2021/12/25 13:16:10;;;;;;;17.98;12.50;;;;;;;;;;4800287;29;20043;-73
2021/12/25 13:18:39;;;;;;;19.35;13.68;;;;;;;;;;4786893;29;20054;-72
2021/12/25 13:21:14;;;;;;;21.00;13.70;;;;;;;;;;4789926;29;20042;-73
2021/12/25 13:23:49;;;;;;;19.15;11.98;;;;;;;;;;4802110;29;20404;-73
2021/12/25 13:26:17;;;;;;;20.15;13.88;;;;;;;;;;4799998;29;20137;-72
2021/12/25 13:28:46;;;;;;;23.50;15.77;;;;;;;;;;4799879;29;20100;-73
2021/12/25 13:31:16;;;;;;;19.02;12.88;;;;;;;;;;4808157;29;20354;-73
2021/12/25 13:33:47;;;;;;;26.15;15.10;;;;;;;;;;4801532;29;20507;-73
2021/12/25 13:36:17;;;;;;;24.63;16.90;;;;;;;;;;4795887;29;20198;-72
2021/12/25 13:38:56;;;;;;;21.10;16.05;;;;;;;;;;4799090;29;20067;-73
2021/12/25 13:41:29;;;;;;;21.25;13.32;;;;;;;;;;4798885;29;20171;-72
2021/12/25 13:44:06;;;;;;;14.63;11.48;;;;;;;;;;4800112;29;20521;-73
2021/12/25 13:46:37;;;;;;;19.38;11.55;;;;;;;;;;4801294;29;20104;-73
2021/12/25 13:49:05;;;;;;;18.40;12.27;;;;;;;;;;4795592;29;20335;-73
2021/12/25 13:51:32;;;;;;;19.33;13.18;;;;;;;;;;4795295;29;20074;-72
2021/12/25 13:54:00;;;;;;;19.35;13.82;;;;;;;;;;4800444;29;20066;-72
2021/12/25 13:56:27;;;;;;;19.20;13.82;;;;;;;;;;4800864;29;20122;-72
2021/12/25 13:58:55;;;;;;;13.48;11.07;;;;;;;;;;4805188;29;20043;-72
2021/12/25 14:01:22;;;;;;;13.35;10.40;;;;;;;;;;4789841;29;20047;-73
2021/12/25 14:03:50;;;;;;;11.63;8.55;;;;;;;;;;4794984;29;20070;-72
2021/12/25 14:06:18;;;;;;;11.98;9.63;;;;;;;;;;4803324;29;20146;-73
2021/12/25 14:08:45;;;;;;;12.55;9.25;;;;;;;;;;4796454;29;20046;-73
2021/12/25 14:11:13;;;;;;;15.55;10.23;;;;;;;;;;4813275;29;20473;-72
2021/12/25 14:13:40;;;;;;;10.90;8.20;;;;;;;;;;4799648;29;20116;-73
2021/12/25 14:16:08;;;;;;;8.68;7.63;;;;;;;;;;4792089;29;21505;-72
2021/12/25 14:18:37;;;;;;;12.13;7.38;;;;;;;;;;4800221;29;20101;-72
2021/12/25 14:21:12;;;;;;;8.68;6.57;;;;;;;;;;4803506;29;20097;-73
2021/12/25 14:23:40;;;;;;;9.05;7.47;;;;;;;;;;4798144;29;20055;-73
2021/12/25 14:26:07;;;;;;;7.53;6.60;;;;;;;;;;4803596;29;20558;-73
2021/12/25 14:28:36;;;;;;;7.75;5.57;;;;;;;;;;4804126;29;20125;-72
2021/12/25 14:31:05;;;;;;;8.13;6.38;;;;;;;;;;4801441;29;20519;-72
2021/12/25 14:33:37;;;;;;;9.35;6.50;;;;;;;;;;4804539;29;20042;-72
2021/12/25 14:36:04;;;;;;;;;;;;;;;;;;4803940;29;20070;-72
2021/12/25 14:38:42;;;;;;;10.82;8.00;;;;;;;;;;4804262;29;20330;-73
2021/12/25 14:41:10;;;;;;;6.35;5.80;;;;;;;;;;4799636;29;20134;-72
2021/12/25 14:43:38;;;;;;;7.65;6.05;;;;;;;;;;4803650;29;20129;-73
2021/12/25 14:46:07;;;;;;;7.45;5.68;;;;;;;;;;4814105;29;20055;-73
2021/12/25 14:48:39;;;;;;;6.57;5.13;;;;;;;;;;4803877;29;20192;-72
2021/12/25 14:51:08;;;;;;;7.20;5.35;;;;;;;;;;4800502;29;20133;-72
2021/12/25 14:53:54;;;;;;;8.00;6.78;;;;;;;;;;4802869;29;20058;-73
2021/12/25 14:56:30;;;;;;;12.82;9.63;;;;;;;;;;4801694;29;20078;-72
2021/12/25 14:59:02;;;;;;;8.77;7.32;;;;;;;;;;4800545;29;20053;-72
2021/12/25 15:01:31;;;;;;;6.80;5.55;;;;;;;;;;4799398;29;20073;-72
2021/12/25 15:04:05;;;;;;;8.93;6.90;;;;;;;;;;4806191;29;20134;-72
2021/12/25 15:06:33;;;;;;;6.85;5.72;;;;;;;;;;4796583;29;20058;-73
2021/12/25 15:09:04;;;;;;;8.15;6.60;;;;;;;;;;4803908;29;20069;-73
2021/12/25 15:11:33;;;;;;;12.38;8.63;;;;;;;;;;4804642;29;20139;-73
2021/12/25 15:14:02;;;;;;;6.85;5.97;;;;;;;;;;4804627;29;20081;-72
2021/12/25 15:16:49;;;;;;;6.32;5.18;;;;;;;;;;4803730;29;20552;-72
2021/12/25 15:19:26;;;;;;;5.93;4.78;;;;;;;;;;4802513;29;20142;-73
2021/12/25 15:21:54;;;;;;;6.80;5.55;;;;;;;;;;4803272;29;20104;-72
2021/12/25 15:24:23;;;;;;;8.73;5.35;;;;;;;;;;4802399;29;20440;-72
2021/12/25 15:26:50;;;;;;;8.13;5.53;;;;;;;;;;4802973;29;20055;-72
2021/12/25 15:29:18;;;;;;;6.00;5.28;;;;;;;;;;4800560;29;20460;-72
2021/12/25 15:31:47;;;;;;;6.10;5.50;;;;;;;;;;4804439;29;20409;-72
2021/12/25 15:34:17;;;;;;;6.45;5.75;;;;;;;;;;4805158;29;20042;-72
2021/12/25 15:36:45;;;;;;;7.07;4.82;;;;;;;;;;4804631;29;20043;-72
2021/12/25 15:39:13;;;;;;;9.70;6.30;;;;;;;;;;4803597;29;20039;-72
2021/12/25 15:41:42;;;;;;;10.10;8.40;;;;;;;;;;4808845;29;20051;-72
2021/12/25 15:44:10;;;;;;;10.80;8.80;;;;;;;;;;4805547;29;20165;-72
2021/12/25 15:46:37;;;;;;;6.28;5.47;;;;;;;;;;4802502;29;20043;-73
2021/12/25 15:49:06;;;;;;;4.47;4.00;;;;;;;;;;4804619;29;20082;-72
2021/12/25 15:51:34;;;;;;;4.40;4.00;;;;;;;;;;4802853;29;20500;-72
2021/12/25 15:54:02;;;;;;;4.15;3.75;;;;;;;;;;4804889;29;20059;-73
2021/12/25 15:56:30;;;;;;;5.18;4.57;;;;;;;;;;4804260;29;20504;-72
2021/12/25 15:58:57;;;;;;;2.90;2.70;;;;;;;;;;4804240;29;20107;-72
2021/12/25 16:01:25;;;;;;;2.75;2.55;;;;;;;;;;4800873;29;20468;-72
2021/12/25 16:03:53;;;;;;;1.88;1.77;;;;;;;;;;4804140;29;20539;-72
2021/12/25 16:06:20;;;;;;;1.65;1.55;;;;;;;;;;4804217;29;20047;-72